createdAt,value
2022-09-15T00:00:27.222Z,69.37
2022-09-15T00:02:54.727Z,68.75
2022-09-15T00:05:22.255Z,69.39
2022-09-15T00:07:49.725Z,69.28
2022-09-15T00:10:17.608Z,69.87
2022-09-15T00:12:45.544Z,69.36
2022-09-15T00:15:15.004Z,69.37
2022-09-15T00:17:49.489Z,69.15
2022-09-15T00:20:17.774Z,69.30
2022-09-15T00:22:45.271Z,68.96
2022-09-15T00:25:13.846Z,70.37
2022-09-15T00:27:41.893Z,69.85
2022-09-15T00:30:10.294Z,68.99
2022-09-15T00:32:37.814Z,70.63
2022-09-15T00:35:07.258Z,70.21
2022-09-15T00:37:34.943Z,69.98
2022-09-15T00:40:03.002Z,69.90
2022-09-15T00:42:30.612Z,70.34
2022-09-15T00:45:00.535Z,69.42
2022-09-15T00:47:40.985Z,70.49
2022-09-15T00:50:13.950Z,69.71
2022-09-15T00:52:47.074Z,70.40
2022-09-15T00:55:20.535Z,69.61
2022-09-15T00:57:53.486Z,69.97
2022-09-15T01:00:22.973Z,70.14
2022-09-15T01:02:51.344Z,70.54
2022-09-15T01:05:23.528Z,69.30
2022-09-15T01:07:57.173Z,69.32
2022-09-15T01:10:27.772Z,68.06
2022-09-15T01:12:57.591Z,68.42
2022-09-15T01:15:33.154Z,68.75
2022-09-15T01:18:15.834Z,69.87
2022-09-15T01:21:09.915Z,70.50
2022-09-15T01:24:03.099Z,70.85
2022-09-15T01:26:52.578Z,72.25
2022-09-15T01:30:04.689Z,71.34
2022-09-15T01:32:59.471Z,71.02
2022-09-15T01:35:35.828Z,71.02
2022-09-15T01:38:09.956Z,69.68
2022-09-15T01:40:42.856Z,69.13
2022-09-15T01:43:11.724Z,68.30
2022-09-15T01:45:43.210Z,68.10
2022-09-15T01:48:12.293Z,68.78
2022-09-15T01:50:52.088Z,68.81
2022-09-15T01:53:22.727Z,68.56
2022-09-15T01:55:55.531Z,68.38
2022-09-15T01:58:23.437Z,68.83
2022-09-15T02:00:57.787Z,68.45
2022-09-15T02:03:34.982Z,68.28
2022-09-15T02:06:07.871Z,68.06
2022-09-15T02:08:42.717Z,68.06
2022-09-15T02:11:16.458Z,69.27
2022-09-15T02:13:54.051Z,69.08
2022-09-15T02:16:23.178Z,68.97
2022-09-15T02:19:17.626Z,68.69
2022-09-15T02:21:58.117Z,68.63
2022-09-15T02:24:33.637Z,68.45
2022-09-15T02:27:03.400Z,69.66
2022-09-15T02:29:36.069Z,69.17
2022-09-15T02:32:07.375Z,69.07
2022-09-15T02:34:41.297Z,68.94
2022-09-15T02:37:10.648Z,69.00
2022-09-15T02:39:41.809Z,68.16
2022-09-15T02:42:10.794Z,68.44
2022-09-15T02:44:38.400Z,68.17
2022-09-15T02:47:06.180Z,68.02
2022-09-15T02:49:33.673Z,68.98
2022-09-15T02:52:02.801Z,69.21
2022-09-15T02:54:30.352Z,68.97
2022-09-15T02:56:59.995Z,68.64
2022-09-15T02:59:47.485Z,69.21
2022-09-15T03:02:15.066Z,68.92
2022-09-15T03:04:42.660Z,68.65
2022-09-15T03:07:11.534Z,69.04
2022-09-15T03:09:39.050Z,68.53
2022-09-15T03:12:07.087Z,68.38
2022-09-15T03:14:35.384Z,68.75
2022-09-15T03:17:02.989Z,68.97
2022-09-15T03:19:30.946Z,69.29
2022-09-15T03:21:58.715Z,68.96
2022-09-15T03:24:27.801Z,70.17
2022-09-15T03:26:55.297Z,70.48
2022-09-15T03:29:22.985Z,69.69
2022-09-15T03:31:50.554Z,70.47
2022-09-15T03:34:18.221Z,69.82
2022-09-15T03:36:45.715Z,70.34
2022-09-15T03:39:14.062Z,69.72
2022-09-15T03:41:42.897Z,69.70
2022-09-15T03:44:10.399Z,69.28
2022-09-15T03:46:37.869Z,69.95
2022-09-15T03:49:06.421Z,70.31
2022-09-15T03:51:33.916Z,70.75
2022-09-15T03:54:01.422Z,70.48
2022-09-15T03:56:31.246Z,71.14
2022-09-15T03:59:01.575Z,71.42
2022-09-15T04:01:29.995Z,71.23
2022-09-15T04:03:57.832Z,71.90
2022-09-15T04:06:26.475Z,71.21
2022-09-15T04:08:54.920Z,71.36
2022-09-15T04:11:23.590Z,71.10
2022-09-15T04:13:51.434Z,71.66
2022-09-15T04:16:23.019Z,71.84
2022-09-15T04:18:51.354Z,71.40
2022-09-15T04:21:21.105Z,71.82
2022-09-15T04:23:49.131Z,71.81
2022-09-15T04:26:21.692Z,71.41
2022-09-15T04:28:49.197Z,71.44
2022-09-15T04:31:18.175Z,70.97
2022-09-15T04:33:48.060Z,71.06
2022-09-15T04:36:17.509Z,71.35
2022-09-15T04:38:45.652Z,71.62
2022-09-15T04:41:14.045Z,71.62
2022-09-15T04:43:41.614Z,71.72
2022-09-15T04:46:09.250Z,71.45
2022-09-15T04:48:37.677Z,72.20
2022-09-15T04:51:08.702Z,72.17
2022-09-15T04:53:37.051Z,72.07
2022-09-15T04:56:05.763Z,72.75
2022-09-15T04:58:37.283Z,72.87
2022-09-15T05:01:08.748Z,73.29
2022-09-15T05:03:37.295Z,72.60
2022-09-15T05:06:08.279Z,72.93
2022-09-15T05:08:36.400Z,72.20
2022-09-15T05:11:06.095Z,72.24
2022-09-15T05:13:34.744Z,71.58
2022-09-15T05:16:06.826Z,71.46
2022-09-15T05:18:34.794Z,71.59
2022-09-15T05:21:03.454Z,70.40
2022-09-15T05:23:34.197Z,70.88
2022-09-15T05:26:03.550Z,69.64
2022-09-15T05:28:33.736Z,69.70
2022-09-15T05:31:01.335Z,69.19
2022-09-15T05:33:28.886Z,69.86
2022-09-15T05:35:58.552Z,69.62
2022-09-15T05:38:27.265Z,70.37
2022-09-15T05:41:02.305Z,69.92
2022-09-15T05:43:31.040Z,70.54
2022-09-15T05:45:58.548Z,70.15
2022-09-15T05:48:26.049Z,70.21
2022-09-15T05:50:55.095Z,71.04
2022-09-15T05:53:23.444Z,71.67
2022-09-15T05:55:57.235Z,71.12
2022-09-15T05:58:24.996Z,69.97
2022-09-15T06:00:53.199Z,70.59
2022-09-15T06:03:21.747Z,70.70
2022-09-15T06:05:49.688Z,70.27
2022-09-15T06:08:17.658Z,70.67
2022-09-15T06:10:45.209Z,71.02
2022-09-15T06:13:14.846Z,71.13
2022-09-15T06:15:42.439Z,72.00
2022-09-15T06:18:09.942Z,70.76
2022-09-15T06:20:37.486Z,71.12
2022-09-15T06:23:04.958Z,69.76
2022-09-15T06:25:32.549Z,71.06
2022-09-15T06:28:00.013Z,70.91
2022-09-15T06:30:28.942Z,70.86
2022-09-15T06:32:56.551Z,71.88
2022-09-15T06:35:24.115Z,71.48
2022-09-15T06:37:51.634Z,71.92
2022-09-15T06:40:19.248Z,71.89
2022-09-15T06:42:46.881Z,71.87
2022-09-15T06:45:14.442Z,71.56
2022-09-15T06:47:43.269Z,71.99
2022-09-15T06:50:10.901Z,71.44
2022-09-15T06:52:38.391Z,70.61
2022-09-15T06:55:06.327Z,71.48
2022-09-15T06:57:34.202Z,71.16
2022-09-15T07:00:02.020Z,71.59
2022-09-15T07:02:29.582Z,72.17
2022-09-15T07:04:58.836Z,71.99
2022-09-15T07:07:26.327Z,71.27
2022-09-15T07:09:53.874Z,71.18
2022-09-15T07:12:21.347Z,71.25
2022-09-15T07:14:48.878Z,71.21
2022-09-15T07:17:16.371Z,71.36
2022-09-15T07:19:45.246Z,70.87
2022-09-15T07:22:14.089Z,70.71
2022-09-15T07:24:41.616Z,70.69
2022-09-15T07:27:09.531Z,71.29
2022-09-15T07:29:38.194Z,70.50
2022-09-15T07:32:06.731Z,71.13
2022-09-15T07:34:34.291Z,71.36
2022-09-15T07:37:01.875Z,71.16
2022-09-15T07:39:33.074Z,70.91
2022-09-15T07:42:00.581Z,70.92
2022-09-15T07:44:28.086Z,69.77
2022-09-15T07:46:55.602Z,69.51
2022-09-15T07:49:23.100Z,69.29
2022-09-15T07:51:50.626Z,69.74
2022-09-15T07:54:22.012Z,69.23
2022-09-15T07:56:51.794Z,69.51
2022-09-15T07:59:19.318Z,68.94
2022-09-15T08:01:46.934Z,69.11
2022-09-15T08:04:14.480Z,68.09
2022-09-15T08:06:41.972Z,68.41
2022-09-15T08:09:14.452Z,69.01
2022-09-15T08:11:42.610Z,68.59
2022-09-15T08:14:11.507Z,67.65
2022-09-15T08:16:39.494Z,67.95
2022-09-15T08:19:07.053Z,68.25
2022-09-15T08:21:34.589Z,68.07
2022-09-15T08:24:02.260Z,67.56
2022-09-15T08:26:30.961Z,67.23
2022-09-15T08:28:59.353Z,66.58
2022-09-15T08:31:28.348Z,66.67
2022-09-15T08:33:56.735Z,65.81
2022-09-15T08:36:27.420Z,65.91
2022-09-15T08:38:54.916Z,66.59
2022-09-15T08:41:26.770Z,66.83
2022-09-15T08:44:02.749Z,66.24
2022-09-15T08:46:37.712Z,65.88
2022-09-15T08:49:07.240Z,65.55
2022-09-15T08:51:41.816Z,65.45
2022-09-15T08:54:16.613Z,65.03
2022-09-15T08:56:45.222Z,64.84
2022-09-15T08:59:15.749Z,63.95
2022-09-15T09:01:53.789Z,64.16
2022-09-15T09:04:37.494Z,64.34
2022-09-15T09:07:15.423Z,64.24
2022-09-15T09:09:50.115Z,63.69
2022-09-15T09:12:46.499Z,63.33
2022-09-15T09:15:24.479Z,63.33
2022-09-15T09:18:12.555Z,63.78
2022-09-15T09:20:48.233Z,62.79
2022-09-15T09:23:19.224Z,62.16
2022-09-15T09:25:47.295Z,62.22
2022-09-15T09:28:28.995Z,62.69
2022-09-15T09:31:00.400Z,62.15
2022-09-15T09:33:32.324Z,62.55
2022-09-15T09:36:02.318Z,62.14
2022-09-15T09:38:32.734Z,62.00
2022-09-15T09:41:02.627Z,61.08
2022-09-15T09:43:31.423Z,60.70
2022-09-15T09:45:59.338Z,60.73
2022-09-15T09:48:30.429Z,58.94
2022-09-15T09:50:57.975Z,58.91
2022-09-15T09:53:29.027Z,57.18
2022-09-15T09:56:16.752Z,57.04
2022-09-15T09:58:44.636Z,56.36
2022-09-15T10:01:14.285Z,56.19
2022-09-15T10:03:45.107Z,55.51
2022-09-15T10:06:14.828Z,53.58
2022-09-15T10:09:05.166Z,55.13
2022-09-15T10:11:42.009Z,53.91
2022-09-15T10:14:19.870Z,54.69
2022-09-15T10:16:58.073Z,54.31
2022-09-15T10:19:27.798Z,54.67
2022-09-15T10:21:55.897Z,54.33
2022-09-15T10:24:34.144Z,54.58
2022-09-15T10:27:27.006Z,54.60
2022-09-15T10:29:55.491Z,54.00
2022-09-15T10:32:26.008Z,53.62
2022-09-15T10:35:18.101Z,53.79
2022-09-15T10:37:59.676Z,53.07
2022-09-15T10:40:34.024Z,53.10
2022-09-15T10:43:16.547Z,53.68
2022-09-15T10:45:48.724Z,53.50
2022-09-15T10:48:43.739Z,53.25
2022-09-15T10:51:27.748Z,53.02
2022-09-15T10:54:13.353Z,53.02
2022-09-15T10:56:44.062Z,53.79
2022-09-15T10:59:27.552Z,54.01
2022-09-15T11:02:13.142Z,53.77
2022-09-15T11:05:04.696Z,53.42
2022-09-15T11:07:43.188Z,52.95
2022-09-15T11:10:19.024Z,53.93
2022-09-15T11:13:01.457Z,52.59
2022-09-15T11:15:42.630Z,54.95
2022-09-15T11:18:43.336Z,56.94
2022-09-15T11:21:21.947Z,57.74
2022-09-15T11:23:58.142Z,58.25
2022-09-15T11:26:31.072Z,58.83
2022-09-15T11:29:04.963Z,59.96
2022-09-15T11:31:38.976Z,59.71
2022-09-15T11:34:12.684Z,61.05
2022-09-15T11:36:45.691Z,60.78
2022-09-15T11:39:21.349Z,61.57
2022-09-15T11:41:56.361Z,60.10
2022-09-15T11:44:25.936Z,61.64
2022-09-15T11:47:11.484Z,61.79
2022-09-15T11:49:43.730Z,61.74
2022-09-15T11:52:33.717Z,61.56
2022-09-15T11:55:13.761Z,61.01
2022-09-15T11:57:47.194Z,60.25
2022-09-15T12:00:16.911Z,59.90
2022-09-15T12:02:51.185Z,59.47
2022-09-15T12:05:23.823Z,59.16
2022-09-15T12:07:56.309Z,58.14
2022-09-15T12:10:31.353Z,58.09
2022-09-15T12:13:01.760Z,57.74
2022-09-15T12:15:29.834Z,56.63
2022-09-15T12:18:27.430Z,57.14
2022-09-15T12:21:02.678Z,57.09
2022-09-15T12:23:34.769Z,56.81
2022-09-15T12:26:14.673Z,57.13
2022-09-15T12:28:54.162Z,56.65
2022-09-15T12:31:39.311Z,56.10
2022-09-15T12:34:36.018Z,56.10
2022-09-15T12:37:13.908Z,56.43
2022-09-15T12:39:42.981Z,56.42
2022-09-15T12:42:20.654Z,56.07
2022-09-15T12:44:53.188Z,56.22
2022-09-15T12:47:26.467Z,56.99
2022-09-15T12:49:58.927Z,56.71
2022-09-15T12:52:26.782Z,56.57
2022-09-15T12:54:57.869Z,57.07
2022-09-15T12:57:29.254Z,57.56
2022-09-15T13:00:28.742Z,57.58
2022-09-15T13:02:56.700Z,57.14
2022-09-15T13:06:10.197Z,56.99
2022-09-15T13:08:49.126Z,56.49
2022-09-15T13:11:20.201Z,56.97
2022-09-15T13:13:52.568Z,56.86
2022-09-15T13:16:27.432Z,56.78
2022-09-15T13:19:06.318Z,56.83
2022-09-15T13:21:37.395Z,57.06
2022-09-15T13:24:15.178Z,57.44
2022-09-15T13:26:45.071Z,56.94
2022-09-15T13:29:16.161Z,57.14
2022-09-15T13:31:53.363Z,56.62
2022-09-15T13:35:13.251Z,56.86
2022-09-15T13:40:59.219Z,56.58
2022-09-15T13:44:00.758Z,55.86
2022-09-15T13:46:40.370Z,56.02
2022-09-15T13:49:32.784Z,56.12
2022-09-15T13:52:08.118Z,55.51
2022-09-15T13:54:35.645Z,55.74
2022-09-15T13:57:05.005Z,55.65
2022-09-15T13:59:34.706Z,55.55
2022-09-15T14:02:02.462Z,55.40
2022-09-15T14:04:32.389Z,55.40
2022-09-15T14:07:02.093Z,54.88
2022-09-15T14:09:33.110Z,54.89
2022-09-15T14:12:06.133Z,55.75
2022-09-15T14:14:38.318Z,55.96
2022-09-15T14:17:06.223Z,54.51
2022-09-15T14:19:35.978Z,54.29
2022-09-15T14:22:24.729Z,54.83
2022-09-15T14:24:53.824Z,54.55
2022-09-15T14:27:25.458Z,55.32
2022-09-15T14:29:57.559Z,54.58
2022-09-15T14:32:27.815Z,53.84
2022-09-15T14:34:58.026Z,54.27
2022-09-15T14:37:28.426Z,53.89
2022-09-15T14:39:58.060Z,53.02
2022-09-15T14:42:30.547Z,53.19
2022-09-15T14:48:01.153Z,53.58
2022-09-15T14:50:32.979Z,53.81
2022-09-15T14:53:05.188Z,53.59
2022-09-15T14:55:36.417Z,53.26
2022-09-15T14:58:09.554Z,53.21
2022-09-15T15:00:44.042Z,52.57
2022-09-15T15:03:24.577Z,52.40
2022-09-15T15:06:02.791Z,52.18
2022-09-15T15:08:38.457Z,52.06
2022-09-15T15:11:10.665Z,52.16
2022-09-15T15:13:43.215Z,52.38
2022-09-15T15:16:19.559Z,52.68
2022-09-15T15:18:47.231Z,52.40
2022-09-15T15:21:36.081Z,52.72
2022-09-15T15:24:09.887Z,53.26
2022-09-15T15:26:39.336Z,52.81
2022-09-15T15:29:29.834Z,52.62
2022-09-15T15:32:05.357Z,53.37
2022-09-15T15:34:33.224Z,52.43
2022-09-15T15:37:04.104Z,52.21
2022-09-15T15:39:31.900Z,52.17
2022-09-15T15:42:05.158Z,52.14
2022-09-15T15:44:34.107Z,51.98
2022-09-15T15:47:03.533Z,52.49
2022-09-15T15:49:32.903Z,51.94
2022-09-15T15:52:01.626Z,52.27
2022-09-15T15:54:29.524Z,51.72
2022-09-15T15:57:05.189Z,51.77
2022-09-15T15:59:34.023Z,51.92
2022-09-15T16:02:01.583Z,52.19
2022-09-15T16:04:29.193Z,52.26
2022-09-15T16:06:56.923Z,52.77
2022-09-15T16:09:24.466Z,53.63
2022-09-15T16:11:51.980Z,53.48
2022-09-15T16:14:19.534Z,53.54
2022-09-15T16:16:48.392Z,53.88
2022-09-15T16:19:15.930Z,54.26
2022-09-15T16:21:43.723Z,54.55
2022-09-15T16:24:14.233Z,54.93
2022-09-15T16:26:42.596Z,54.89
2022-09-15T16:29:10.157Z,55.26
2022-09-15T16:31:38.475Z,55.97
2022-09-15T16:34:07.396Z,55.88
2022-09-15T16:36:36.240Z,55.70
2022-09-15T16:39:03.951Z,56.45
2022-09-15T16:41:33.066Z,56.32
2022-09-15T16:44:05.831Z,56.63
2022-09-15T16:46:33.371Z,56.25
2022-09-15T16:49:01.130Z,56.75
2022-09-15T16:51:31.600Z,56.12
2022-09-15T16:53:59.486Z,56.11
2022-09-15T16:56:27.136Z,56.56
2022-09-15T16:59:00.239Z,56.23
2022-09-15T17:01:28.811Z,56.41
2022-09-15T17:03:56.573Z,56.80
2022-09-15T17:06:24.455Z,57.09
2022-09-15T17:08:53.406Z,57.43
2022-09-15T17:11:23.661Z,57.38
2022-09-15T17:13:51.185Z,57.56
2022-09-15T17:16:20.535Z,57.74
2022-09-15T17:18:48.943Z,57.96
2022-09-15T17:21:18.350Z,58.01
2022-09-15T17:23:47.768Z,57.92
2022-09-15T17:26:21.718Z,57.67
2022-09-15T17:28:49.362Z,57.13
2022-09-15T17:31:18.791Z,57.22
2022-09-15T17:33:47.370Z,57.57
2022-09-15T17:36:15.151Z,57.70
2022-09-15T17:38:44.815Z,57.25
2022-09-15T17:41:16.855Z,57.48
2022-09-15T17:43:44.375Z,57.52
2022-09-15T17:46:12.048Z,57.52
2022-09-15T17:48:39.955Z,56.79
2022-09-15T17:51:08.107Z,56.34
2022-09-15T17:53:35.624Z,56.54
2022-09-15T17:56:03.447Z,56.02
2022-09-15T17:58:33.255Z,55.43
2022-09-15T18:01:01.326Z,55.15
2022-09-15T18:03:31.527Z,54.97
2022-09-15T18:06:01.290Z,53.50
2022-09-15T18:08:29.009Z,52.86
2022-09-15T18:10:56.596Z,52.18
2022-09-15T18:13:26.822Z,52.56
2022-09-15T18:15:56.441Z,52.50
2022-09-15T18:18:26.492Z,52.15
2022-09-15T18:20:55.357Z,51.99
2022-09-15T18:23:24.809Z,51.70
2022-09-15T18:25:52.962Z,51.54
2022-09-15T18:28:20.691Z,51.62
2022-09-15T18:30:50.199Z,51.82
2022-09-15T18:33:20.897Z,51.34
2022-09-15T18:35:49.715Z,51.02
2022-09-15T18:38:17.910Z,50.95
2022-09-15T18:40:46.634Z,50.54
2022-09-15T18:43:14.211Z,51.12
2022-09-15T18:45:42.358Z,50.68
2022-09-15T18:48:12.857Z,51.20
2022-09-15T18:50:44.350Z,50.83
2022-09-15T18:53:12.334Z,50.69
2022-09-15T18:55:41.434Z,51.46
2022-09-15T18:58:08.976Z,51.52
2022-09-15T19:00:37.274Z,51.70
2022-09-15T19:03:09.274Z,51.83
2022-09-15T19:05:37.002Z,52.17
2022-09-15T19:08:08.111Z,52.79
2022-09-15T19:10:35.640Z,53.66
2022-09-15T19:13:03.206Z,54.43
2022-09-15T19:15:33.624Z,54.33
2022-09-15T19:18:01.910Z,54.08
2022-09-15T19:20:30.082Z,54.26
2022-09-15T19:22:57.989Z,55.80
2022-09-15T19:25:26.861Z,55.90
2022-09-15T19:27:54.377Z,56.16
2022-09-15T19:30:21.871Z,57.02
2022-09-15T19:32:49.405Z,57.08
2022-09-15T19:35:16.952Z,56.58
2022-09-15T19:37:44.499Z,56.47
2022-09-15T19:40:14.733Z,56.71
2022-09-15T19:42:45.735Z,56.62
2022-09-15T19:45:14.181Z,57.16
2022-09-15T19:47:41.905Z,56.60
2022-09-15T19:50:11.186Z,56.87
2022-09-15T19:52:38.942Z,56.27
2022-09-15T19:55:09.434Z,56.10
2022-09-15T19:57:39.472Z,56.33
2022-09-15T20:00:11.530Z,56.63
2022-09-15T20:02:39.368Z,56.68
2022-09-15T20:05:08.538Z,56.10
2022-09-15T20:07:36.060Z,56.55
2022-09-15T20:10:04.262Z,55.29
2022-09-15T20:12:32.129Z,56.04
2022-09-15T20:14:59.665Z,55.39
2022-09-15T20:17:28.757Z,55.97
2022-09-15T20:19:56.373Z,56.08
2022-09-15T20:22:23.914Z,56.46
2022-09-15T20:24:51.731Z,56.06
2022-09-15T20:27:19.206Z,55.78
2022-09-15T20:29:46.767Z,56.24
2022-09-15T20:32:14.293Z,56.45
2022-09-15T20:34:43.201Z,56.46
2022-09-15T20:37:10.929Z,55.64
2022-09-15T20:39:38.461Z,55.39
2022-09-15T20:42:06.194Z,56.27
2022-09-15T20:44:33.741Z,56.08
2022-09-15T20:47:01.220Z,55.98
2022-09-15T20:49:28.724Z,56.22
2022-09-15T20:51:57.542Z,55.96
2022-09-15T20:54:25.062Z,55.89
2022-09-15T20:56:52.568Z,55.75
2022-09-15T20:59:20.091Z,56.64
2022-09-15T21:01:47.987Z,55.92
2022-09-15T21:04:15.671Z,56.62
2022-09-15T21:06:43.163Z,56.15
2022-09-15T21:09:12.462Z,55.81
2022-09-15T21:11:39.950Z,56.69
2022-09-15T21:14:07.488Z,57.03
2022-09-15T21:16:35.136Z,56.44
2022-09-15T21:19:02.730Z,58.46
2022-09-15T21:21:31.506Z,58.22
2022-09-15T21:24:03.403Z,58.35
2022-09-15T21:26:34.320Z,58.14
2022-09-15T21:29:02.269Z,57.57
2022-09-15T21:31:31.912Z,57.84
2022-09-15T21:34:00.286Z,57.35
2022-09-15T21:36:29.485Z,57.57
2022-09-15T21:38:58.595Z,57.85
2022-09-15T21:41:28.996Z,57.76
2022-09-15T21:43:59.204Z,58.29
2022-09-15T21:46:29.043Z,57.95
2022-09-15T21:48:57.738Z,58.51
2022-09-15T21:51:26.062Z,58.33
2022-09-15T21:53:54.755Z,59.11
2022-09-15T21:56:23.376Z,59.40
2022-09-15T21:58:51.120Z,59.17
2022-09-15T22:01:21.865Z,59.97
2022-09-15T22:03:51.435Z,60.04
2022-09-15T22:06:20.226Z,59.76
2022-09-15T22:08:47.943Z,59.37
2022-09-15T22:11:15.727Z,60.44
2022-09-15T22:13:44.751Z,61.14
2022-09-15T22:16:14.602Z,60.79
2022-09-15T22:18:44.373Z,60.62
2022-09-15T22:21:13.533Z,61.17
2022-09-15T22:23:41.699Z,61.19
2022-09-15T22:26:11.475Z,61.30
2022-09-15T22:28:39.136Z,60.67
2022-09-15T22:31:09.965Z,61.24
2022-09-15T22:33:38.442Z,61.78
2022-09-15T22:36:10.630Z,61.79
2022-09-15T22:38:38.452Z,62.74
2022-09-15T22:41:08.966Z,62.14
2022-09-15T22:43:36.724Z,62.20
2022-09-15T22:46:04.591Z,61.90
2022-09-15T22:48:33.496Z,62.00
2022-09-15T22:51:01.266Z,62.10
2022-09-15T22:53:30.176Z,61.59
2022-09-15T22:56:05.837Z,61.60
2022-09-15T22:58:33.452Z,61.94
2022-09-15T23:01:05.475Z,61.62
2022-09-15T23:03:33.172Z,61.67
2022-09-15T23:06:02.010Z,61.11
2022-09-15T23:08:31.665Z,60.90
2022-09-15T23:11:04.389Z,61.95
2022-09-15T23:13:31.920Z,61.73
2022-09-15T23:15:59.446Z,62.03
2022-09-15T23:18:27.860Z,61.89
2022-09-15T23:21:00.005Z,61.27
2022-09-15T23:23:28.115Z,61.45
2022-09-15T23:25:57.578Z,61.94
2022-09-15T23:28:25.390Z,61.72
2022-09-15T23:30:53.705Z,61.46
2022-09-15T23:33:22.163Z,61.41
2022-09-15T23:35:50.029Z,61.81
2022-09-15T23:38:18.247Z,60.81
2022-09-15T23:40:46.837Z,60.81
2022-09-15T23:43:15.727Z,61.29
2022-09-15T23:45:44.106Z,61.89
2022-09-15T23:48:12.665Z,61.62
2022-09-15T23:50:41.378Z,61.70
2022-09-15T23:53:09.096Z,61.69
2022-09-15T23:55:37.339Z,62.15
2022-09-15T23:58:05.938Z,61.29
